Gladehill, Virginia
Current Conditions -  °F | °C
As of 12:54 AM on Thursday 23 Oct 2014 (Local Time) from KROA Reporting Station
Clear Clear  
Wind Chill: 50°   Ceiling: Unl
Heat Index: 50°   Visibility: 10mi
Dew Point: 38°   Wind: 16mph
Humidity: 63%   Direction: 320°NW
Pressure: 30.1"   Gusts: NA
Location:  36.99°N, 79.77°W
Report Text: KROA 230454Z 32014KT 10SM CLR 10/03 A3010 RMK AO2 PK WND 29028/0430 SLP189 T01000033 401610089
Loading
Personal Weather Stations






























Interactive Weather Map
Tropical Storm Tracking
New forecast layout! Learn more

10-Day Weather Forecast

Advertisements
Track Severe Weather on mobile